createdAt,value
2023-05-10T00:02:35.000Z,55.89
2023-05-10T00:07:36.000Z,54.37
2023-05-10T00:12:35.000Z,55.09
2023-05-10T00:17:36.000Z,54.19
2023-05-10T00:22:35.000Z,56.21
2023-05-10T00:27:36.000Z,56.64
2023-05-10T00:32:36.000Z,55.77
2023-05-10T00:37:35.000Z,55.27
2023-05-10T00:42:36.000Z,64.94
2023-05-10T00:47:36.000Z,64.94
2023-05-10T00:52:35.000Z,67.42
2023-05-10T00:57:35.000Z,66.8
2023-05-10T01:02:36.000Z,67.26
2023-05-10T01:07:35.000Z,67.82
2023-05-10T01:12:36.000Z,67.36
2023-05-10T01:17:35.000Z,69.58
2023-05-10T01:22:36.000Z,69.84
2023-05-10T01:27:36.000Z,68.63
2023-05-10T01:32:36.000Z,68.46
2023-05-10T01:37:36.000Z,71.78
2023-05-10T01:42:36.000Z,70.29
2023-05-10T01:47:36.000Z,69.51
2023-05-10T01:52:35.000Z,69.51
2023-05-10T01:57:35.000Z,70.42
2023-05-10T02:02:36.000Z,68.89
2023-05-10T02:07:36.000Z,71.63
2023-05-10T02:12:36.000Z,72.42
2023-05-10T02:17:36.000Z,73.31
2023-05-10T02:22:37.000Z,76.41
2023-05-10T02:27:36.000Z,73.69
2023-05-10T02:32:36.000Z,75.95
2023-05-10T02:37:36.000Z,74.03
2023-05-10T02:42:36.000Z,72.21
2023-05-10T02:47:35.000Z,72.21
2023-05-10T02:52:36.000Z,71.54
2023-05-10T02:57:35.000Z,74.15
2023-05-10T03:02:36.000Z,73.08
2023-05-10T03:07:36.000Z,73.08
2023-05-10T03:12:36.000Z,74.27
2023-05-10T03:17:35.000Z,76.41
2023-05-10T03:22:35.000Z,73.69
2023-05-10T03:27:35.000Z,75.11
2023-05-10T03:32:37.000Z,71.69
2023-05-10T03:37:36.000Z,73.17
2023-05-10T03:42:35.000Z,74.14
2023-05-10T03:47:35.000Z,71.1
2023-05-10T03:52:36.000Z,66.85
2023-05-10T03:57:36.000Z,68.44
2023-05-10T04:02:35.000Z,66.95
2023-05-10T04:07:35.000Z,57.92
2023-05-10T04:12:36.000Z,54.14
2023-05-10T04:17:36.000Z,54.14
2023-05-10T04:22:35.000Z,52.7
2023-05-10T04:27:35.000Z,52.26
2023-05-10T04:32:35.000Z,52.5
2023-05-10T04:37:35.000Z,50.68
2023-05-10T04:42:35.000Z,50.07
2023-05-10T04:47:36.000Z,48.62
2023-05-10T04:52:36.000Z,46.24
2023-05-10T04:57:35.000Z,44.55
2023-05-10T05:02:36.000Z,43.4
2023-05-10T05:07:36.000Z,42.21
2023-05-10T05:12:36.000Z,41.6
2023-05-10T05:17:35.000Z,40.76
2023-05-10T05:22:35.000Z,39.24
2023-05-10T05:27:35.000Z,38.18
2023-05-10T05:32:36.000Z,38.18
2023-05-10T05:37:36.000Z,35.28
2023-05-10T05:42:36.000Z,33.04
2023-05-10T05:47:35.000Z,32.93
2023-05-10T05:52:35.000Z,31.31
2023-05-10T05:57:35.000Z,29.81
2023-05-10T06:02:35.000Z,29.15
2023-05-10T06:07:35.000Z,28.68
2023-05-10T06:12:36.000Z,28.53
2023-05-10T06:17:36.000Z,26.89
2023-05-10T06:22:36.000Z,26.12
2023-05-10T06:27:36.000Z,25.38
2023-05-10T06:32:36.000Z,21.85
2023-05-10T06:37:35.000Z,21.4
2023-05-10T06:42:36.000Z,20.98
2023-05-10T06:47:36.000Z,20.98
2023-05-10T06:52:35.000Z,20.34
2023-05-10T06:57:42.000Z,20.55
2023-05-10T07:02:36.000Z,19.99
2023-05-10T07:07:36.000Z,19.39
2023-05-10T07:12:36.000Z,18.75
2023-05-10T07:17:36.000Z,19.08
2023-05-10T07:22:35.000Z,17.71
2023-05-10T07:27:35.000Z,16.82
2023-05-10T07:32:36.000Z,15.75
2023-05-10T07:37:35.000Z,14.87
2023-05-10T07:42:35.000Z,14.31
2023-05-10T07:47:35.000Z,14.25
2023-05-10T07:52:35.000Z,14.25
2023-05-10T07:57:35.000Z,14.51
2023-05-10T08:02:36.000Z,14.4
2023-05-10T08:07:36.000Z,15.7
2023-05-10T08:12:36.000Z,16.23
2023-05-10T08:17:36.000Z,16.96
2023-05-10T08:22:36.000Z,16.21
2023-05-10T08:27:36.000Z,12.91
2023-05-10T08:32:35.000Z,10.88
2023-05-10T08:37:35.000Z,9.24
2023-05-10T08:42:36.000Z,9.51
2023-05-10T08:47:36.000Z,9.23
2023-05-10T08:52:35.000Z,9.19
2023-05-10T08:57:36.000Z,10.86
2023-05-10T09:02:37.000Z,12.79
2023-05-10T09:07:35.000Z,12.79
2023-05-10T09:12:35.000Z,14.44
2023-05-10T09:17:36.000Z,16.18
2023-05-10T09:22:36.000Z,16.13
2023-05-10T09:27:36.000Z,17.23
2023-05-10T09:32:36.000Z,18.82
2023-05-10T09:37:35.000Z,18.22
2023-05-10T09:42:36.000Z,19.01
2023-05-10T09:47:36.000Z,19.14
2023-05-10T09:52:35.000Z,19.24
2023-05-10T09:57:38.000Z,19.12
2023-05-10T10:02:36.000Z,19.36
2023-05-10T10:07:36.000Z,19.98
2023-05-10T10:12:36.000Z,20.91
2023-05-10T10:17:35.000Z,20.3
2023-05-10T10:22:36.000Z,20.3
2023-05-10T10:27:36.000Z,19.88
2023-05-10T10:32:36.000Z,20.39
2023-05-10T10:37:54.000Z,21.42
2023-05-10T10:42:36.000Z,20.08
2023-05-10T10:47:36.000Z,20.99
2023-05-10T10:52:36.000Z,20.09
2023-05-10T10:57:36.000Z,20.09
2023-05-10T11:02:35.000Z,20.04
2023-05-10T11:07:36.000Z,20.08
2023-05-10T11:12:36.000Z,20.74
2023-05-10T11:17:36.000Z,20
2023-05-10T11:22:36.000Z,19.74
2023-05-10T11:27:36.000Z,20.27
2023-05-10T11:32:36.000Z,20.21
2023-05-10T11:37:36.000Z,20.21
2023-05-10T11:42:35.000Z,20.56
2023-05-10T11:47:35.000Z,20.72
2023-05-10T11:52:36.000Z,21.59
2023-05-10T11:57:35.000Z,21.34
2023-05-10T12:02:36.000Z,21.79
2023-05-10T12:07:36.000Z,22.13
2023-05-10T12:12:36.000Z,21.78
2023-05-10T12:17:36.000Z,21.52
2023-05-10T12:22:36.000Z,21.75
2023-05-10T12:27:35.000Z,22.66
2023-05-10T12:32:35.000Z,23.08
2023-05-10T12:37:35.000Z,22.87
2023-05-10T12:42:36.000Z,22.87
2023-05-10T12:47:36.000Z,22.39
2023-05-10T12:52:35.000Z,22.98
2023-05-10T12:57:36.000Z,23.27
2023-05-10T13:02:36.000Z,23.41
2023-05-10T13:07:36.000Z,23.35
2023-05-10T13:12:35.000Z,24.01
2023-05-10T13:17:36.000Z,24.28
2023-05-10T13:22:50.000Z,23.61
2023-05-10T13:27:35.000Z,23.6
2023-05-10T13:32:35.000Z,23.98
2023-05-10T13:37:35.000Z,24.2
2023-05-10T13:42:35.000Z,24.54
2023-05-10T13:47:36.000Z,24.43
2023-05-10T13:52:36.000Z,24.38
2023-05-10T13:57:35.000Z,24.38
2023-05-10T14:02:36.000Z,25.04
2023-05-10T14:07:36.000Z,25.76
2023-05-10T14:12:36.000Z,25.94
2023-05-10T14:17:36.000Z,25.73
2023-05-10T14:22:35.000Z,25.57
2023-05-10T14:27:36.000Z,26.03
2023-05-10T14:32:38.000Z,26.14
2023-05-10T14:37:36.000Z,26.35
2023-05-10T14:42:35.000Z,26.23
2023-05-10T14:47:36.000Z,26.32
2023-05-10T14:53:22.000Z,27.19
2023-05-10T14:57:35.000Z,26.96
2023-05-10T15:02:36.000Z,26.96
2023-05-10T15:07:36.000Z,27.2
2023-05-10T15:12:36.000Z,27.44
2023-05-10T15:17:36.000Z,27.83
2023-05-10T15:22:36.000Z,28.45
2023-05-10T15:27:36.000Z,28.72
2023-05-10T15:32:36.000Z,29.09
2023-05-10T15:37:36.000Z,29.25
2023-05-10T15:42:35.000Z,29.39
2023-05-10T15:47:35.000Z,29.59
2023-05-10T15:52:35.000Z,30.48
2023-05-10T15:57:36.000Z,31.3
2023-05-10T16:02:36.000Z,31.72
2023-05-10T16:07:36.000Z,31.8
2023-05-10T16:12:35.000Z,31.8
2023-05-10T16:17:36.000Z,32.53
2023-05-10T16:22:35.000Z,33.08
2023-05-10T16:27:36.000Z,33.51
2023-05-10T16:32:36.000Z,34.42
2023-05-10T16:37:35.000Z,35.04
2023-05-10T16:42:35.000Z,36.84
2023-05-10T16:47:36.000Z,37.54
2023-05-10T16:52:35.000Z,37.98
2023-05-10T16:57:35.000Z,38.17
2023-05-10T17:02:36.000Z,38.64
2023-05-10T17:07:37.000Z,39.43
2023-05-10T17:12:35.000Z,39.78
2023-05-10T17:17:36.000Z,40.13
2023-05-10T17:22:36.000Z,40.13
2023-05-10T17:27:36.000Z,41.13
2023-05-10T17:32:35.000Z,42.42
2023-05-10T17:37:35.000Z,42.52
2023-05-10T17:42:36.000Z,43.39
2023-05-10T17:47:36.000Z,44.42
2023-05-10T17:52:35.000Z,44.84
2023-05-10T17:57:35.000Z,44.84
2023-05-10T18:02:36.000Z,44.96
2023-05-10T18:07:35.000Z,46.36
2023-05-10T18:12:35.000Z,47.33
2023-05-10T18:17:36.000Z,49.35
2023-05-10T18:22:35.000Z,50.54
2023-05-10T18:27:35.000Z,51.9
2023-05-10T18:32:35.000Z,53.59
2023-05-10T18:37:35.000Z,53.59
2023-05-10T18:42:36.000Z,54.57
2023-05-10T18:47:36.000Z,55.06
2023-05-10T18:52:35.000Z,55.78
2023-05-10T18:57:35.000Z,57.69
2023-05-10T19:02:35.000Z,60.14
2023-05-10T19:07:36.000Z,62.58
2023-05-10T19:12:36.000Z,62.99
2023-05-10T19:17:36.000Z,62.5
2023-05-10T19:22:55.000Z,59.52
2023-05-10T19:27:35.000Z,59.88
2023-05-10T19:32:35.000Z,62.16
2023-05-10T19:37:36.000Z,61.49
2023-05-10T19:42:35.000Z,60.94
2023-05-10T19:47:35.000Z,60.94
2023-05-10T19:52:36.000Z,60.7
2023-05-10T19:57:35.000Z,61.56
2023-05-10T20:02:35.000Z,56.85
2023-05-10T20:07:36.000Z,59.86
2023-05-10T20:12:35.000Z,58.76
2023-05-10T20:17:36.000Z,57.57
2023-05-10T20:22:35.000Z,58.2
2023-05-10T20:27:37.000Z,59.56
2023-05-10T20:32:36.000Z,63.52
2023-05-10T20:37:35.000Z,65.71
2023-05-10T20:42:36.000Z,60.09
2023-05-10T20:47:35.000Z,56.58
2023-05-10T20:52:35.000Z,60.45
2023-05-10T20:57:36.000Z,60.45
2023-05-10T21:02:35.000Z,54.13
2023-05-10T21:07:35.000Z,55.94
2023-05-10T21:12:35.000Z,55.79
2023-05-10T21:17:36.000Z,57.94
2023-05-10T21:22:35.000Z,56.88
2023-05-10T21:27:36.000Z,54.49
2023-05-10T21:32:36.000Z,55.59
2023-05-10T21:37:36.000Z,56.34
2023-05-10T21:42:36.000Z,57.21
2023-05-10T21:47:35.000Z,62.09
2023-05-10T21:52:36.000Z,64.95
2023-05-10T21:57:36.000Z,66.57
2023-05-10T22:02:36.000Z,68.48
2023-05-10T22:07:36.000Z,72.15
2023-05-10T22:12:36.000Z,72.15
2023-05-10T22:17:35.000Z,71.63
2023-05-10T22:22:35.000Z,72.27
2023-05-10T22:27:35.000Z,67.77
2023-05-10T22:32:36.000Z,55.95
2023-05-10T22:37:36.000Z,50.82
2023-05-10T22:42:35.000Z,50.8
2023-05-10T22:47:35.000Z,54.45
2023-05-10T22:52:35.000Z,62.04
2023-05-10T22:57:35.000Z,65.73
2023-05-10T23:02:36.000Z,74.32
2023-05-10T23:07:36.000Z,76.63
2023-05-10T23:12:35.000Z,77.78
2023-05-10T23:17:36.000Z,80
2023-05-10T23:22:36.000Z,80
2023-05-10T23:27:35.000Z,82.59
2023-05-10T23:32:36.000Z,89.98
2023-05-10T23:37:36.000Z,94.59
2023-05-10T23:42:36.000Z,90.11
2023-05-10T23:47:36.000Z,85.79
2023-05-10T23:52:36.000Z,83.77
2023-05-10T23:57:35.000Z,85.28
